sensor_id;sensor_type;location;lat;lon;timestamp;temperature;humidity
17146;DHT22;8688;54.444;18.444;2022-08-14T00:01:16;18.50;79.30
17146;DHT22;8688;54.444;18.444;2022-08-14T00:03:44;18.50;58.90
17146;DHT22;8688;54.444;18.444;2022-08-14T00:06:11;18.50;83.90
17146;DHT22;8688;54.444;18.444;2022-08-14T00:08:40;18.50;99.90
17146;DHT22;8688;54.444;18.444;2022-08-14T00:11:07;18.40;99.90
17146;DHT22;8688;54.444;18.444;2022-08-14T00:13:35;18.40;99.90
17146;DHT22;8688;54.444;18.444;2022-08-14T00:16:02;18.50;99.90
17146;DHT22;8688;54.444;18.444;2022-08-14T00:18:30;18.40;99.90
17146;DHT22;8688;54.444;18.444;2022-08-14T00:20:58;18.40;99.90
17146;DHT22;8688;54.444;18.444;2022-08-14T00:23:25;18.40;99.90
17146;DHT22;8688;54.444;18.444;2022-08-14T00:25:54;18.40;99.90
17146;DHT22;8688;54.444;18.444;2022-08-14T00:28:22;18.30;99.90
17146;DHT22;8688;54.444;18.444;2022-08-14T00:30:53;18.30;99.90
17146;DHT22;8688;54.444;18.444;2022-08-14T00:33:23;18.20;99.90
17146;DHT22;8688;54.444;18.444;2022-08-14T00:35:50;18.20;99.90
17146;DHT22;8688;54.444;18.444;2022-08-14T00:38:18;18.20;99.90
17146;DHT22;8688;54.444;18.444;2022-08-14T00:40:47;18.20;99.90
17146;DHT22;8688;54.444;18.444;2022-08-14T00:43:16;18.20;99.90
17146;DHT22;8688;54.444;18.444;2022-08-14T00:45:43;18.20;99.90
17146;DHT22;8688;54.444;18.444;2022-08-14T00:48:11;18.10;99.90
17146;DHT22;8688;54.444;18.444;2022-08-14T00:50:38;18.00;99.90
17146;DHT22;8688;54.444;18.444;2022-08-14T00:53:06;17.90;99.90
17146;DHT22;8688;54.444;18.444;2022-08-14T00:55:35;17.90;99.90
17146;DHT22;8688;54.444;18.444;2022-08-14T00:58:06;18.00;99.90
17146;DHT22;8688;54.444;18.444;2022-08-14T01:00:52;18.00;99.90
17146;DHT22;8688;54.444;18.444;2022-08-14T01:03:20;17.90;99.90
17146;DHT22;8688;54.444;18.444;2022-08-14T01:05:50;17.90;99.90
17146;DHT22;8688;54.444;18.444;2022-08-14T01:08:19;17.90;99.90
17146;DHT22;8688;54.444;18.444;2022-08-14T01:10:47;17.90;99.90
17146;DHT22;8688;54.444;18.444;2022-08-14T01:13:20;17.90;99.90
17146;DHT22;8688;54.444;18.444;2022-08-14T01:15:49;17.90;99.90
17146;DHT22;8688;54.444;18.444;2022-08-14T01:18:19;17.80;99.90
17146;DHT22;8688;54.444;18.444;2022-08-14T01:21:05;17.80;99.90
17146;DHT22;8688;54.444;18.444;2022-08-14T01:23:40;17.70;99.90
17146;DHT22;8688;54.444;18.444;2022-08-14T01:26:09;17.80;99.90
17146;DHT22;8688;54.444;18.444;2022-08-14T01:28:37;17.80;99.90
17146;DHT22;8688;54.444;18.444;2022-08-14T01:31:06;17.80;99.90
17146;DHT22;8688;54.444;18.444;2022-08-14T01:33:35;17.80;99.90
17146;DHT22;8688;54.444;18.444;2022-08-14T01:36:07;17.80;99.90
17146;DHT22;8688;54.444;18.444;2022-08-14T01:38:35;17.80;99.90
17146;DHT22;8688;54.444;18.444;2022-08-14T01:41:06;17.80;99.90
17146;DHT22;8688;54.444;18.444;2022-08-14T01:43:43;17.70;99.90
17146;DHT22;8688;54.444;18.444;2022-08-14T01:46:13;17.70;99.90
17146;DHT22;8688;54.444;18.444;2022-08-14T01:48:42;17.70;99.90
17146;DHT22;8688;54.444;18.444;2022-08-14T01:51:11;17.70;99.90
17146;DHT22;8688;54.444;18.444;2022-08-14T01:53:40;17.70;99.90
17146;DHT22;8688;54.444;18.444;2022-08-14T01:56:09;17.70;99.90
17146;DHT22;8688;54.444;18.444;2022-08-14T01:58:37;17.70;99.90
17146;DHT22;8688;54.444;18.444;2022-08-14T02:01:04;17.70;99.90
17146;DHT22;8688;54.444;18.444;2022-08-14T02:03:38;17.70;99.90
17146;DHT22;8688;54.444;18.444;2022-08-14T02:06:06;17.70;99.90
17146;DHT22;8688;54.444;18.444;2022-08-14T02:08:34;17.70;99.90
17146;DHT22;8688;54.444;18.444;2022-08-14T02:11:04;17.80;99.90
17146;DHT22;8688;54.444;18.444;2022-08-14T02:13:51;17.80;99.90
17146;DHT22;8688;54.444;18.444;2022-08-14T02:16:22;17.80;99.90
17146;DHT22;8688;54.444;18.444;2022-08-14T02:18:53;17.80;99.90
17146;DHT22;8688;54.444;18.444;2022-08-14T02:21:20;17.80;99.90
17146;DHT22;8688;54.444;18.444;2022-08-14T02:23:49;17.80;99.90
17146;DHT22;8688;54.444;18.444;2022-08-14T02:26:19;17.80;99.90
17146;DHT22;8688;54.444;18.444;2022-08-14T02:28:50;17.80;99.90
17146;DHT22;8688;54.444;18.444;2022-08-14T02:31:19;17.70;99.90
17146;DHT22;8688;54.444;18.444;2022-08-14T02:33:46;17.70;99.90
17146;DHT22;8688;54.444;18.444;2022-08-14T02:36:14;17.70;99.90
17146;DHT22;8688;54.444;18.444;2022-08-14T02:38:42;17.60;99.90
17146;DHT22;8688;54.444;18.444;2022-08-14T02:41:11;17.60;99.90
17146;DHT22;8688;54.444;18.444;2022-08-14T02:43:40;17.60;99.90
17146;DHT22;8688;54.444;18.444;2022-08-14T02:46:10;17.50;99.90
17146;DHT22;8688;54.444;18.444;2022-08-14T02:48:39;17.50;99.90
17146;DHT22;8688;54.444;18.444;2022-08-14T02:51:09;17.50;99.90
17146;DHT22;8688;54.444;18.444;2022-08-14T02:53:38;17.50;99.90
17146;DHT22;8688;54.444;18.444;2022-08-14T02:56:07;17.50;99.90
17146;DHT22;8688;54.444;18.444;2022-08-14T02:58:38;17.50;99.90
17146;DHT22;8688;54.444;18.444;2022-08-14T03:01:08;17.50;99.90
17146;DHT22;8688;54.444;18.444;2022-08-14T03:03:37;17.50;99.90
17146;DHT22;8688;54.444;18.444;2022-08-14T03:06:05;17.60;99.90
17146;DHT22;8688;54.444;18.444;2022-08-14T03:08:34;17.60;99.90
17146;DHT22;8688;54.444;18.444;2022-08-14T03:11:03;17.70;99.90
17146;DHT22;8688;54.444;18.444;2022-08-14T03:13:31;17.70;99.90
17146;DHT22;8688;54.444;18.444;2022-08-14T03:15:59;17.80;99.90
17146;DHT22;8688;54.444;18.444;2022-08-14T03:18:28;17.80;99.90
17146;DHT22;8688;54.444;18.444;2022-08-14T03:20:56;17.80;99.90
17146;DHT22;8688;54.444;18.444;2022-08-14T03:23:23;17.80;99.90
17146;DHT22;8688;54.444;18.444;2022-08-14T03:25:50;17.80;99.90
17146;DHT22;8688;54.444;18.444;2022-08-14T03:28:18;17.80;99.90
17146;DHT22;8688;54.444;18.444;2022-08-14T03:30:49;17.80;99.90
17146;DHT22;8688;54.444;18.444;2022-08-14T03:33:16;17.80;99.90
17146;DHT22;8688;54.444;18.444;2022-08-14T03:35:46;17.90;99.90
17146;DHT22;8688;54.444;18.444;2022-08-14T03:38:14;17.90;99.90
17146;DHT22;8688;54.444;18.444;2022-08-14T03:40:43;17.90;99.90
17146;DHT22;8688;54.444;18.444;2022-08-14T03:43:12;17.90;99.90
17146;DHT22;8688;54.444;18.444;2022-08-14T03:45:40;17.90;99.90
17146;DHT22;8688;54.444;18.444;2022-08-14T03:48:11;17.90;99.90
17146;DHT22;8688;54.444;18.444;2022-08-14T03:50:40;18.00;99.90
17146;DHT22;8688;54.444;18.444;2022-08-14T03:53:10;18.00;99.90
17146;DHT22;8688;54.444;18.444;2022-08-14T03:55:38;18.10;99.90
17146;DHT22;8688;54.444;18.444;2022-08-14T03:58:06;18.10;99.90
17146;DHT22;8688;54.444;18.444;2022-08-14T04:00:35;18.20;99.90
17146;DHT22;8688;54.444;18.444;2022-08-14T04:03:04;18.20;99.90
17146;DHT22;8688;54.444;18.444;2022-08-14T04:05:32;18.30;99.90
17146;DHT22;8688;54.444;18.444;2022-08-14T04:07:59;18.30;99.90
17146;DHT22;8688;54.444;18.444;2022-08-14T04:10:28;18.30;99.90
17146;DHT22;8688;54.444;18.444;2022-08-14T04:12:56;18.30;99.90
17146;DHT22;8688;54.444;18.444;2022-08-14T04:15:26;18.40;99.90
17146;DHT22;8688;54.444;18.444;2022-08-14T04:17:54;18.40;99.90
17146;DHT22;8688;54.444;18.444;2022-08-14T04:20:21;18.40;99.90
17146;DHT22;8688;54.444;18.444;2022-08-14T04:22:48;18.40;99.90
17146;DHT22;8688;54.444;18.444;2022-08-14T04:25:16;18.50;99.90
17146;DHT22;8688;54.444;18.444;2022-08-14T04:27:45;18.50;99.90
17146;DHT22;8688;54.444;18.444;2022-08-14T04:30:13;18.60;99.90
17146;DHT22;8688;54.444;18.444;2022-08-14T04:32:41;18.60;99.90
17146;DHT22;8688;54.444;18.444;2022-08-14T04:35:10;18.70;99.90
17146;DHT22;8688;54.444;18.444;2022-08-14T04:37:37;18.70;99.90
17146;DHT22;8688;54.444;18.444;2022-08-14T04:40:22;18.70;99.90
17146;DHT22;8688;54.444;18.444;2022-08-14T04:43:08;18.80;99.90
17146;DHT22;8688;54.444;18.444;2022-08-14T04:45:53;18.80;99.90
17146;DHT22;8688;54.444;18.444;2022-08-14T04:48:20;18.80;99.90
17146;DHT22;8688;54.444;18.444;2022-08-14T04:50:49;18.90;99.90
17146;DHT22;8688;54.444;18.444;2022-08-14T04:53:18;18.90;99.90
17146;DHT22;8688;54.444;18.444;2022-08-14T04:55:48;19.00;99.90
17146;DHT22;8688;54.444;18.444;2022-08-14T04:58:18;19.00;99.90
17146;DHT22;8688;54.444;18.444;2022-08-14T05:00:47;19.10;99.90
17146;DHT22;8688;54.444;18.444;2022-08-14T05:03:16;19.10;99.90
17146;DHT22;8688;54.444;18.444;2022-08-14T05:05:46;19.20;99.90
17146;DHT22;8688;54.444;18.444;2022-08-14T05:08:14;19.20;99.90
17146;DHT22;8688;54.444;18.444;2022-08-14T05:10:43;19.30;99.90
17146;DHT22;8688;54.444;18.444;2022-08-14T05:13:11;19.30;99.90
17146;DHT22;8688;54.444;18.444;2022-08-14T05:15:41;19.40;99.90
17146;DHT22;8688;54.444;18.444;2022-08-14T05:18:11;19.50;99.90
17146;DHT22;8688;54.444;18.444;2022-08-14T05:20:39;19.60;99.90
17146;DHT22;8688;54.444;18.444;2022-08-14T05:23:10;19.60;99.90
17146;DHT22;8688;54.444;18.444;2022-08-14T05:25:38;19.70;99.90
17146;DHT22;8688;54.444;18.444;2022-08-14T05:28:08;19.70;99.90
17146;DHT22;8688;54.444;18.444;2022-08-14T05:30:36;19.80;99.90
17146;DHT22;8688;54.444;18.444;2022-08-14T05:33:05;19.90;99.90
17146;DHT22;8688;54.444;18.444;2022-08-14T05:35:32;19.90;99.90
17146;DHT22;8688;54.444;18.444;2022-08-14T05:38:05;20.00;99.90
17146;DHT22;8688;54.444;18.444;2022-08-14T05:40:33;20.00;99.90
17146;DHT22;8688;54.444;18.444;2022-08-14T05:43:01;20.10;99.90
17146;DHT22;8688;54.444;18.444;2022-08-14T05:45:28;20.10;99.90
17146;DHT22;8688;54.444;18.444;2022-08-14T05:47:56;20.20;99.90
17146;DHT22;8688;54.444;18.444;2022-08-14T05:50:25;20.30;99.90
17146;DHT22;8688;54.444;18.444;2022-08-14T05:52:52;20.30;99.90
17146;DHT22;8688;54.444;18.444;2022-08-14T05:55:21;20.40;99.90
17146;DHT22;8688;54.444;18.444;2022-08-14T05:57:50;20.40;99.90
17146;DHT22;8688;54.444;18.444;2022-08-14T06:00:20;20.40;99.90
17146;DHT22;8688;54.444;18.444;2022-08-14T06:02:48;20.40;99.90
17146;DHT22;8688;54.444;18.444;2022-08-14T06:05:15;20.50;99.90
17146;DHT22;8688;54.444;18.444;2022-08-14T06:07:44;20.60;99.90
17146;DHT22;8688;54.444;18.444;2022-08-14T06:10:11;20.60;99.90
17146;DHT22;8688;54.444;18.444;2022-08-14T06:12:39;20.70;99.90
17146;DHT22;8688;54.444;18.444;2022-08-14T06:15:07;20.70;99.90
17146;DHT22;8688;54.444;18.444;2022-08-14T06:17:45;20.80;99.90
17146;DHT22;8688;54.444;18.444;2022-08-14T06:20:13;20.80;99.90
17146;DHT22;8688;54.444;18.444;2022-08-14T06:22:41;20.80;99.90
17146;DHT22;8688;54.444;18.444;2022-08-14T06:25:12;20.90;99.90
17146;DHT22;8688;54.444;18.444;2022-08-14T06:27:41;21.00;99.90
17146;DHT22;8688;54.444;18.444;2022-08-14T06:30:11;21.00;99.90
17146;DHT22;8688;54.444;18.444;2022-08-14T06:32:39;21.10;99.90
17146;DHT22;8688;54.444;18.444;2022-08-14T06:35:08;21.20;99.90
17146;DHT22;8688;54.444;18.444;2022-08-14T06:37:40;21.20;99.90
17146;DHT22;8688;54.444;18.444;2022-08-14T06:40:11;21.30;99.90
17146;DHT22;8688;54.444;18.444;2022-08-14T06:42:39;21.30;99.90
17146;DHT22;8688;54.444;18.444;2022-08-14T06:45:08;21.40;99.90
17146;DHT22;8688;54.444;18.444;2022-08-14T06:47:36;21.40;99.90
17146;DHT22;8688;54.444;18.444;2022-08-14T06:50:06;21.50;99.90
17146;DHT22;8688;54.444;18.444;2022-08-14T06:52:34;21.50;99.90
17146;DHT22;8688;54.444;18.444;2022-08-14T06:55:01;21.60;99.90
17146;DHT22;8688;54.444;18.444;2022-08-14T06:57:36;21.60;99.90
17146;DHT22;8688;54.444;18.444;2022-08-14T07:00:06;21.60;99.90
17146;DHT22;8688;54.444;18.444;2022-08-14T07:02:34;21.70;99.90
17146;DHT22;8688;54.444;18.444;2022-08-14T07:05:19;21.70;99.90
17146;DHT22;8688;54.444;18.444;2022-08-14T07:08:04;21.80;99.90
17146;DHT22;8688;54.444;18.444;2022-08-14T07:10:32;21.90;99.90
17146;DHT22;8688;54.444;18.444;2022-08-14T07:13:01;21.90;99.90
17146;DHT22;8688;54.444;18.444;2022-08-14T07:15:29;22.00;99.90
17146;DHT22;8688;54.444;18.444;2022-08-14T07:17:56;22.10;1.00
17146;DHT22;8688;54.444;18.444;2022-08-14T07:20:23;22.10;1.00
17146;DHT22;8688;54.444;18.444;2022-08-14T07:22:53;22.10;1.00
17146;DHT22;8688;54.444;18.444;2022-08-14T07:25:23;22.10;1.00
17146;DHT22;8688;54.444;18.444;2022-08-14T07:27:51;22.20;1.00
17146;DHT22;8688;54.444;18.444;2022-08-14T07:30:20;22.20;99.90
17146;DHT22;8688;54.444;18.444;2022-08-14T07:32:48;22.30;1.00
17146;DHT22;8688;54.444;18.444;2022-08-14T07:35:16;22.40;40.20
17146;DHT22;8688;54.444;18.444;2022-08-14T07:37:47;22.40;99.90
17146;DHT22;8688;54.444;18.444;2022-08-14T07:40:14;22.30;1.00
17146;DHT22;8688;54.444;18.444;2022-08-14T07:42:42;22.40;1.00
17146;DHT22;8688;54.444;18.444;2022-08-14T07:45:10;22.40;1.00
17146;DHT22;8688;54.444;18.444;2022-08-14T07:47:41;22.50;99.90
17146;DHT22;8688;54.444;18.444;2022-08-14T07:50:12;22.50;99.90
17146;DHT22;8688;54.444;18.444;2022-08-14T07:52:40;22.60;1.00
17146;DHT22;8688;54.444;18.444;2022-08-14T07:55:09;22.70;99.90
17146;DHT22;8688;54.444;18.444;2022-08-14T07:57:38;22.80;1.00
17146;DHT22;8688;54.444;18.444;2022-08-14T08:00:08;22.80;1.00
17146;DHT22;8688;54.444;18.444;2022-08-14T08:02:40;22.90;1.00
17146;DHT22;8688;54.444;18.444;2022-08-14T08:05:08;23.00;99.90
17146;DHT22;8688;54.444;18.444;2022-08-14T08:07:37;23.10;61.60
17146;DHT22;8688;54.444;18.444;2022-08-14T08:10:07;22.90;99.90
17146;DHT22;8688;54.444;18.444;2022-08-14T08:12:50;22.90;1.00
17146;DHT22;8688;54.444;18.444;2022-08-14T08:15:19;22.90;1.00
17146;DHT22;8688;54.444;18.444;2022-08-14T08:17:49;22.90;99.90
17146;DHT22;8688;54.444;18.444;2022-08-14T08:20:18;23.00;99.90
17146;DHT22;8688;54.444;18.444;2022-08-14T08:22:46;23.00;99.90
17146;DHT22;8688;54.444;18.444;2022-08-14T08:25:13;23.10;1.00
17146;DHT22;8688;54.444;18.444;2022-08-14T08:27:41;23.00;1.00
17146;DHT22;8688;54.444;18.444;2022-08-14T08:30:10;23.00;1.00
17146;DHT22;8688;54.444;18.444;2022-08-14T08:32:39;23.00;1.00
17146;DHT22;8688;54.444;18.444;2022-08-14T08:35:17;23.10;1.00
17146;DHT22;8688;54.444;18.444;2022-08-14T08:37:45;23.20;1.00
17146;DHT22;8688;54.444;18.444;2022-08-14T08:40:21;23.30;99.90
17146;DHT22;8688;54.444;18.444;2022-08-14T08:42:49;23.40;99.90
17146;DHT22;8688;54.444;18.444;2022-08-14T08:45:17;23.30;99.90
17146;DHT22;8688;54.444;18.444;2022-08-14T08:47:46;23.50;99.90
17146;DHT22;8688;54.444;18.444;2022-08-14T08:50:23;23.60;99.90
17146;DHT22;8688;54.444;18.444;2022-08-14T08:52:56;23.70;44.30
17146;DHT22;8688;54.444;18.444;2022-08-14T08:55:31;23.80;47.40
17146;DHT22;8688;54.444;18.444;2022-08-14T08:58:01;23.80;18.30
17146;DHT22;8688;54.444;18.444;2022-08-14T09:00:30;23.70;1.00
17146;DHT22;8688;54.444;18.444;2022-08-14T09:03:04;23.70;12.20
17146;DHT22;8688;54.444;18.444;2022-08-14T09:05:34;23.80;1.00
17146;DHT22;8688;54.444;18.444;2022-08-14T09:08:09;23.80;1.00
17146;DHT22;8688;54.444;18.444;2022-08-14T09:10:37;23.80;1.00
17146;DHT22;8688;54.444;18.444;2022-08-14T09:13:05;23.80;1.00
17146;DHT22;8688;54.444;18.444;2022-08-14T09:15:32;23.80;1.00
17146;DHT22;8688;54.444;18.444;2022-08-14T09:18:00;23.70;1.00
17146;DHT22;8688;54.444;18.444;2022-08-14T09:20:28;23.70;1.00
17146;DHT22;8688;54.444;18.444;2022-08-14T09:23:00;23.90;1.00
17146;DHT22;8688;54.444;18.444;2022-08-14T09:25:28;23.90;1.00
17146;DHT22;8688;54.444;18.444;2022-08-14T09:27:55;23.90;1.00
17146;DHT22;8688;54.444;18.444;2022-08-14T09:30:23;23.90;1.00
17146;DHT22;8688;54.444;18.444;2022-08-14T09:33:13;24.00;1.00
17146;DHT22;8688;54.444;18.444;2022-08-14T09:35:52;24.10;1.00
17146;DHT22;8688;54.444;18.444;2022-08-14T09:38:32;24.20;1.00
17146;DHT22;8688;54.444;18.444;2022-08-14T09:41:12;24.30;1.00
17146;DHT22;8688;54.444;18.444;2022-08-14T09:44:03;24.40;1.00
17146;DHT22;8688;54.444;18.444;2022-08-14T09:46:32;24.30;1.00
17146;DHT22;8688;54.444;18.444;2022-08-14T09:49:00;24.30;1.00
17146;DHT22;8688;54.444;18.444;2022-08-14T09:51:30;24.40;1.00
17146;DHT22;8688;54.444;18.444;2022-08-14T09:54:04;24.40;1.00
17146;DHT22;8688;54.444;18.444;2022-08-14T09:56:44;24.40;1.00
17146;DHT22;8688;54.444;18.444;2022-08-14T09:59:13;24.40;1.00
17146;DHT22;8688;54.444;18.444;2022-08-14T10:01:42;24.50;1.00
17146;DHT22;8688;54.444;18.444;2022-08-14T10:04:21;24.70;1.00
17146;DHT22;8688;54.444;18.444;2022-08-14T10:06:50;24.80;1.00
17146;DHT22;8688;54.444;18.444;2022-08-14T10:09:19;24.80;1.00
17146;DHT22;8688;54.444;18.444;2022-08-14T10:11:57;24.70;1.00
17146;DHT22;8688;54.444;18.444;2022-08-14T10:14:28;24.70;1.00
17146;DHT22;8688;54.444;18.444;2022-08-14T10:16:58;24.80;1.00
17146;DHT22;8688;54.444;18.444;2022-08-14T10:19:27;24.90;1.00
17146;DHT22;8688;54.444;18.444;2022-08-14T10:21:59;24.90;1.00
17146;DHT22;8688;54.444;18.444;2022-08-14T10:24:30;24.80;1.00
17146;DHT22;8688;54.444;18.444;2022-08-14T10:26:59;24.70;1.00
17146;DHT22;8688;54.444;18.444;2022-08-14T10:29:32;24.60;1.00
17146;DHT22;8688;54.444;18.444;2022-08-14T10:32:00;24.60;1.00
17146;DHT22;8688;54.444;18.444;2022-08-14T10:34:32;24.70;1.00
17146;DHT22;8688;54.444;18.444;2022-08-14T10:37:04;24.70;1.00
17146;DHT22;8688;54.444;18.444;2022-08-14T10:39:35;24.70;1.00
17146;DHT22;8688;54.444;18.444;2022-08-14T10:42:04;24.90;1.00
17146;DHT22;8688;54.444;18.444;2022-08-14T10:44:34;25.00;1.00
17146;DHT22;8688;54.444;18.444;2022-08-14T10:47:02;25.10;1.00
17146;DHT22;8688;54.444;18.444;2022-08-14T10:49:31;25.20;1.00
17146;DHT22;8688;54.444;18.444;2022-08-14T10:52:00;25.20;1.00
17146;DHT22;8688;54.444;18.444;2022-08-14T10:54:33;25.10;1.00
17146;DHT22;8688;54.444;18.444;2022-08-14T10:57:17;25.10;1.00
17146;DHT22;8688;54.444;18.444;2022-08-14T10:59:47;25.30;1.00
17146;DHT22;8688;54.444;18.444;2022-08-14T11:02:17;25.40;1.00
17146;DHT22;8688;54.444;18.444;2022-08-14T11:04:59;25.40;1.00
17146;DHT22;8688;54.444;18.444;2022-08-14T11:07:28;25.30;1.00
17146;DHT22;8688;54.444;18.444;2022-08-14T11:09:57;25.40;1.00
17146;DHT22;8688;54.444;18.444;2022-08-14T11:12:37;25.50;1.00
17146;DHT22;8688;54.444;18.444;2022-08-14T11:15:06;25.40;1.00
17146;DHT22;8688;54.444;18.444;2022-08-14T11:17:34;25.40;1.00
17146;DHT22;8688;54.444;18.444;2022-08-14T11:20:04;25.60;1.00
17146;DHT22;8688;54.444;18.444;2022-08-14T11:22:32;25.70;1.00
17146;DHT22;8688;54.444;18.444;2022-08-14T11:25:03;25.90;1.00
17146;DHT22;8688;54.444;18.444;2022-08-14T11:27:33;25.90;1.00
17146;DHT22;8688;54.444;18.444;2022-08-14T11:30:04;25.80;1.00
17146;DHT22;8688;54.444;18.444;2022-08-14T11:32:32;25.70;1.00
17146;DHT22;8688;54.444;18.444;2022-08-14T11:35:01;25.60;1.00
17146;DHT22;8688;54.444;18.444;2022-08-14T11:37:29;25.70;1.00
17146;DHT22;8688;54.444;18.444;2022-08-14T11:39:59;25.70;1.00
17146;DHT22;8688;54.444;18.444;2022-08-14T11:42:28;25.70;1.00
17146;DHT22;8688;54.444;18.444;2022-08-14T11:45:03;25.80;1.00
17146;DHT22;8688;54.444;18.444;2022-08-14T11:47:32;25.70;1.00
17146;DHT22;8688;54.444;18.444;2022-08-14T11:49:59;25.80;1.00
17146;DHT22;8688;54.444;18.444;2022-08-14T11:52:37;25.90;1.00
17146;DHT22;8688;54.444;18.444;2022-08-14T11:55:08;26.10;1.00
17146;DHT22;8688;54.444;18.444;2022-08-14T11:57:36;26.00;1.00
17146;DHT22;8688;54.444;18.444;2022-08-14T12:00:08;26.00;1.00
17146;DHT22;8688;54.444;18.444;2022-08-14T12:02:36;26.00;1.00
17146;DHT22;8688;54.444;18.444;2022-08-14T12:05:15;25.90;1.00
17146;DHT22;8688;54.444;18.444;2022-08-14T12:07:47;25.90;1.00
17146;DHT22;8688;54.444;18.444;2022-08-14T12:10:17;25.80;1.00
17146;DHT22;8688;54.444;18.444;2022-08-14T12:12:45;25.80;1.00
17146;DHT22;8688;54.444;18.444;2022-08-14T12:15:15;25.90;1.00
17146;DHT22;8688;54.444;18.444;2022-08-14T12:17:44;25.90;1.00
17146;DHT22;8688;54.444;18.444;2022-08-14T12:20:13;25.70;1.00
17146;DHT22;8688;54.444;18.444;2022-08-14T12:22:42;25.70;1.00
17146;DHT22;8688;54.444;18.444;2022-08-14T12:25:12;25.80;1.00
17146;DHT22;8688;54.444;18.444;2022-08-14T12:27:42;25.80;1.00
17146;DHT22;8688;54.444;18.444;2022-08-14T12:30:25;26.00;1.00
17146;DHT22;8688;54.444;18.444;2022-08-14T12:32:53;26.10;1.00
17146;DHT22;8688;54.444;18.444;2022-08-14T12:35:21;26.20;1.00
17146;DHT22;8688;54.444;18.444;2022-08-14T12:37:50;26.10;1.00
17146;DHT22;8688;54.444;18.444;2022-08-14T12:40:18;26.20;1.00
17146;DHT22;8688;54.444;18.444;2022-08-14T12:42:49;26.10;1.00
17146;DHT22;8688;54.444;18.444;2022-08-14T12:45:29;26.20;1.00
17146;DHT22;8688;54.444;18.444;2022-08-14T12:47:59;26.20;1.00
17146;DHT22;8688;54.444;18.444;2022-08-14T12:50:38;26.20;1.00
17146;DHT22;8688;54.444;18.444;2022-08-14T12:53:06;26.40;1.00
17146;DHT22;8688;54.444;18.444;2022-08-14T12:55:34;26.50;1.00
17146;DHT22;8688;54.444;18.444;2022-08-14T12:58:03;26.60;1.00
17146;DHT22;8688;54.444;18.444;2022-08-14T13:00:35;26.60;1.00
17146;DHT22;8688;54.444;18.444;2022-08-14T13:03:03;26.40;1.00
17146;DHT22;8688;54.444;18.444;2022-08-14T13:05:33;26.20;1.00
17146;DHT22;8688;54.444;18.444;2022-08-14T13:08:04;25.90;1.00
17146;DHT22;8688;54.444;18.444;2022-08-14T13:10:33;25.90;1.00
17146;DHT22;8688;54.444;18.444;2022-08-14T13:13:01;26.00;1.00
17146;DHT22;8688;54.444;18.444;2022-08-14T13:15:28;26.10;1.00
17146;DHT22;8688;54.444;18.444;2022-08-14T13:17:58;26.20;1.00
17146;DHT22;8688;54.444;18.444;2022-08-14T13:20:29;26.20;1.00
17146;DHT22;8688;54.444;18.444;2022-08-14T13:22:59;26.40;1.00
17146;DHT22;8688;54.444;18.444;2022-08-14T13:25:27;26.50;1.00
17146;DHT22;8688;54.444;18.444;2022-08-14T13:27:56;26.50;1.00
17146;DHT22;8688;54.444;18.444;2022-08-14T13:30:25;26.40;1.00
17146;DHT22;8688;54.444;18.444;2022-08-14T13:32:55;26.50;1.00
17146;DHT22;8688;54.444;18.444;2022-08-14T13:35:24;26.50;1.00
17146;DHT22;8688;54.444;18.444;2022-08-14T13:37:51;26.50;1.00
17146;DHT22;8688;54.444;18.444;2022-08-14T13:40:20;26.60;1.00
17146;DHT22;8688;54.444;18.444;2022-08-14T13:42:49;26.70;1.00
17146;DHT22;8688;54.444;18.444;2022-08-14T13:45:17;26.70;1.00
17146;DHT22;8688;54.444;18.444;2022-08-14T13:47:46;26.80;1.00
17146;DHT22;8688;54.444;18.444;2022-08-14T13:50:15;27.00;1.00
17146;DHT22;8688;54.444;18.444;2022-08-14T13:52:49;26.90;1.00
17146;DHT22;8688;54.444;18.444;2022-08-14T13:55:20;27.10;1.00
17146;DHT22;8688;54.444;18.444;2022-08-14T13:57:49;27.10;1.00
17146;DHT22;8688;54.444;18.444;2022-08-14T14:00:17;26.90;1.00
17146;DHT22;8688;54.444;18.444;2022-08-14T14:02:46;26.90;1.00
17146;DHT22;8688;54.444;18.444;2022-08-14T14:05:15;26.90;1.00
17146;DHT22;8688;54.444;18.444;2022-08-14T14:07:47;26.90;1.00
17146;DHT22;8688;54.444;18.444;2022-08-14T14:10:16;26.90;1.00
17146;DHT22;8688;54.444;18.444;2022-08-14T14:12:44;27.00;1.00
17146;DHT22;8688;54.444;18.444;2022-08-14T14:15:14;26.90;1.00
17146;DHT22;8688;54.444;18.444;2022-08-14T14:17:42;26.80;1.00
17146;DHT22;8688;54.444;18.444;2022-08-14T14:20:13;26.70;1.00
17146;DHT22;8688;54.444;18.444;2022-08-14T14:22:41;26.70;1.00
17146;DHT22;8688;54.444;18.444;2022-08-14T14:25:11;26.70;1.00
17146;DHT22;8688;54.444;18.444;2022-08-14T14:27:40;26.60;1.00
17146;DHT22;8688;54.444;18.444;2022-08-14T14:30:11;26.60;1.00
17146;DHT22;8688;54.444;18.444;2022-08-14T14:32:40;26.60;1.00
17146;DHT22;8688;54.444;18.444;2022-08-14T14:35:11;26.60;1.00
17146;DHT22;8688;54.444;18.444;2022-08-14T14:37:40;26.70;1.00
17146;DHT22;8688;54.444;18.444;2022-08-14T14:40:11;26.70;1.00
17146;DHT22;8688;54.444;18.444;2022-08-14T14:42:45;26.70;1.00
17146;DHT22;8688;54.444;18.444;2022-08-14T14:45:15;26.70;1.00
17146;DHT22;8688;54.444;18.444;2022-08-14T14:47:47;26.70;1.00
17146;DHT22;8688;54.444;18.444;2022-08-14T14:50:16;26.70;1.00
17146;DHT22;8688;54.444;18.444;2022-08-14T14:52:45;26.80;1.00
17146;DHT22;8688;54.444;18.444;2022-08-14T14:55:15;26.90;1.00
17146;DHT22;8688;54.444;18.444;2022-08-14T14:57:44;26.70;1.00
17146;DHT22;8688;54.444;18.444;2022-08-14T15:00:15;26.70;1.00
17146;DHT22;8688;54.444;18.444;2022-08-14T15:02:44;26.80;1.00
17146;DHT22;8688;54.444;18.444;2022-08-14T15:05:14;26.80;1.00
17146;DHT22;8688;54.444;18.444;2022-08-14T15:07:42;26.70;1.00
17146;DHT22;8688;54.444;18.444;2022-08-14T15:10:13;26.70;1.00
17146;DHT22;8688;54.444;18.444;2022-08-14T15:12:42;26.60;1.00
17146;DHT22;8688;54.444;18.444;2022-08-14T15:15:10;26.70;1.00
17146;DHT22;8688;54.444;18.444;2022-08-14T15:17:38;26.50;1.00
17146;DHT22;8688;54.444;18.444;2022-08-14T15:20:09;26.50;1.00
17146;DHT22;8688;54.444;18.444;2022-08-14T15:22:37;26.60;1.00
17146;DHT22;8688;54.444;18.444;2022-08-14T15:25:05;26.70;1.00
17146;DHT22;8688;54.444;18.444;2022-08-14T15:27:34;26.90;1.00
17146;DHT22;8688;54.444;18.444;2022-08-14T15:30:04;26.80;1.00
17146;DHT22;8688;54.444;18.444;2022-08-14T15:32:32;26.90;1.00
17146;DHT22;8688;54.444;18.444;2022-08-14T15:35:00;26.90;1.00
17146;DHT22;8688;54.444;18.444;2022-08-14T15:37:28;26.90;1.00
17146;DHT22;8688;54.444;18.444;2022-08-14T15:39:55;26.90;1.00
17146;DHT22;8688;54.444;18.444;2022-08-14T15:42:23;26.70;1.00
17146;DHT22;8688;54.444;18.444;2022-08-14T15:44:51;26.60;1.00
17146;DHT22;8688;54.444;18.444;2022-08-14T15:47:21;26.60;1.00
17146;DHT22;8688;54.444;18.444;2022-08-14T15:49:49;26.70;1.00
17146;DHT22;8688;54.444;18.444;2022-08-14T15:52:19;26.90;1.00
17146;DHT22;8688;54.444;18.444;2022-08-14T15:54:48;26.90;1.00